sensor_id;sensor_type;location;lat;lon;timestamp;P1;durP1;ratioP1;P2;durP2;ratioP2
64957;SDS011;51486;50.232;19.208;2022-08-20T00:01:00;12.00;;;5.73;;
64957;SDS011;51486;50.232;19.208;2022-08-20T00:03:38;15.40;;;5.20;;
64957;SDS011;51486;50.232;19.208;2022-08-20T00:06:13;14.03;;;5.37;;
64957;SDS011;51486;50.232;19.208;2022-08-20T00:08:41;13.67;;;5.03;;
64957;SDS011;51486;50.232;19.208;2022-08-20T00:11:09;11.40;;;5.50;;
64957;SDS011;51486;50.232;19.208;2022-08-20T00:13:37;14.90;;;5.87;;
64957;SDS011;51486;50.232;19.208;2022-08-20T00:16:08;8.77;;;5.60;;
64957;SDS011;51486;50.232;19.208;2022-08-20T00:18:34;10.67;;;5.60;;
64957;SDS011;51486;50.232;19.208;2022-08-20T00:21:03;12.47;;;5.93;;
64957;SDS011;51486;50.232;19.208;2022-08-20T00:23:32;14.33;;;6.50;;
64957;SDS011;51486;50.232;19.208;2022-08-20T00:25:59;8.30;;;5.30;;
64957;SDS011;51486;50.232;19.208;2022-08-20T00:28:25;8.00;;;4.40;;
64957;SDS011;51486;50.232;19.208;2022-08-20T00:30:51;7.73;;;4.90;;
64957;SDS011;51486;50.232;19.208;2022-08-20T00:33:18;15.63;;;5.70;;
64957;SDS011;51486;50.232;19.208;2022-08-20T00:35:46;10.07;;;5.23;;
64957;SDS011;51486;50.232;19.208;2022-08-20T00:38:20;9.83;;;5.13;;
64957;SDS011;51486;50.232;19.208;2022-08-20T00:40:49;12.40;;;5.60;;
64957;SDS011;51486;50.232;19.208;2022-08-20T00:43:40;14.20;;;6.40;;
64957;SDS011;51486;50.232;19.208;2022-08-20T00:46:16;11.27;;;5.53;;
64957;SDS011;51486;50.232;19.208;2022-08-20T00:48:45;12.47;;;6.03;;
64957;SDS011;51486;50.232;19.208;2022-08-20T00:53:39;8.47;;;5.87;;
64957;SDS011;51486;50.232;19.208;2022-08-20T00:56:05;11.87;;;5.57;;
64957;SDS011;51486;50.232;19.208;2022-08-20T00:58:32;12.70;;;5.50;;
64957;SDS011;51486;50.232;19.208;2022-08-20T01:00:58;6.93;;;4.60;;
64957;SDS011;51486;50.232;19.208;2022-08-20T01:03:24;11.17;;;5.70;;
64957;SDS011;51486;50.232;19.208;2022-08-20T01:05:50;11.17;;;4.83;;
64957;SDS011;51486;50.232;19.208;2022-08-20T01:08:17;19.07;;;6.10;;
64957;SDS011;51486;50.232;19.208;2022-08-20T01:10:45;7.80;;;4.83;;
64957;SDS011;51486;50.232;19.208;2022-08-20T01:13:13;10.97;;;5.23;;
64957;SDS011;51486;50.232;19.208;2022-08-20T01:15:45;10.90;;;5.03;;
64957;SDS011;51486;50.232;19.208;2022-08-20T01:18:14;8.23;;;4.90;;
64957;SDS011;51486;50.232;19.208;2022-08-20T01:20:44;9.80;;;6.13;;
64957;SDS011;51486;50.232;19.208;2022-08-20T01:31:05;7.57;;;4.87;;
64957;SDS011;51486;50.232;19.208;2022-08-20T01:33:32;13.47;;;5.10;;
64957;SDS011;51486;50.232;19.208;2022-08-20T01:35:58;10.73;;;5.70;;
64957;SDS011;51486;50.232;19.208;2022-08-20T01:38:25;9.50;;;5.40;;
64957;SDS011;51486;50.232;19.208;2022-08-20T01:43:38;12.00;;;6.07;;
64957;SDS011;51486;50.232;19.208;2022-08-20T01:46:06;13.20;;;5.43;;
64957;SDS011;51486;50.232;19.208;2022-08-20T01:48:34;16.10;;;6.40;;
64957;SDS011;51486;50.232;19.208;2022-08-20T01:51:09;10.57;;;5.43;;
64957;SDS011;51486;50.232;19.208;2022-08-20T01:53:39;11.20;;;5.77;;
64957;SDS011;51486;50.232;19.208;2022-08-20T01:56:08;12.87;;;5.50;;
64957;SDS011;51486;50.232;19.208;2022-08-20T01:58:42;14.07;;;5.60;;
64957;SDS011;51486;50.232;19.208;2022-08-20T02:01:20;12.90;;;6.10;;
64957;SDS011;51486;50.232;19.208;2022-08-20T02:03:47;13.63;;;6.13;;
64957;SDS011;51486;50.232;19.208;2022-08-20T02:06:13;14.33;;;6.53;;
64957;SDS011;51486;50.232;19.208;2022-08-20T02:08:39;12.63;;;5.93;;
64957;SDS011;51486;50.232;19.208;2022-08-20T02:11:04;13.37;;;5.40;;
64957;SDS011;51486;50.232;19.208;2022-08-20T02:13:30;18.13;;;5.33;;
64957;SDS011;51486;50.232;19.208;2022-08-20T02:15:56;12.40;;;5.80;;
64957;SDS011;51486;50.232;19.208;2022-08-20T02:18:22;11.90;;;5.73;;
64957;SDS011;51486;50.232;19.208;2022-08-20T02:20:47;8.57;;;4.57;;
64957;SDS011;51486;50.232;19.208;2022-08-20T02:23:15;13.60;;;5.47;;
64957;SDS011;51486;50.232;19.208;2022-08-20T02:25:41;15.23;;;6.60;;
64957;SDS011;51486;50.232;19.208;2022-08-20T02:28:10;12.60;;;6.60;;
64957;SDS011;51486;50.232;19.208;2022-08-20T02:30:39;18.83;;;6.07;;
64957;SDS011;51486;50.232;19.208;2022-08-20T02:33:09;13.80;;;5.67;;
64957;SDS011;51486;50.232;19.208;2022-08-20T02:35:37;12.77;;;5.70;;
64957;SDS011;51486;50.232;19.208;2022-08-20T02:38:04;9.90;;;5.97;;
64957;SDS011;51486;50.232;19.208;2022-08-20T02:40:30;12.13;;;6.17;;
64957;SDS011;51486;50.232;19.208;2022-08-20T02:42:56;11.27;;;5.57;;
64957;SDS011;51486;50.232;19.208;2022-08-20T02:45:26;12.53;;;6.63;;
64957;SDS011;51486;50.232;19.208;2022-08-20T02:47:52;20.17;;;5.90;;
64957;SDS011;51486;50.232;19.208;2022-08-20T02:50:19;10.93;;;5.30;;
64957;SDS011;51486;50.232;19.208;2022-08-20T02:52:46;11.70;;;4.97;;
64957;SDS011;51486;50.232;19.208;2022-08-20T02:55:12;8.87;;;5.23;;
64957;SDS011;51486;50.232;19.208;2022-08-20T02:57:38;7.47;;;5.20;;
64957;SDS011;51486;50.232;19.208;2022-08-20T03:00:06;11.40;;;5.73;;
64957;SDS011;51486;50.232;19.208;2022-08-20T03:02:32;9.03;;;4.77;;
64957;SDS011;51486;50.232;19.208;2022-08-20T03:04:58;9.93;;;5.63;;
64957;SDS011;51486;50.232;19.208;2022-08-20T03:07:23;11.23;;;5.07;;
64957;SDS011;51486;50.232;19.208;2022-08-20T03:09:49;12.77;;;5.50;;
64957;SDS011;51486;50.232;19.208;2022-08-20T03:12:14;16.30;;;5.60;;
64957;SDS011;51486;50.232;19.208;2022-08-20T03:14:40;10.67;;;5.43;;
64957;SDS011;51486;50.232;19.208;2022-08-20T03:17:06;10.47;;;5.53;;
64957;SDS011;51486;50.232;19.208;2022-08-20T03:19:31;10.40;;;5.27;;
64957;SDS011;51486;50.232;19.208;2022-08-20T03:21:56;16.03;;;5.27;;
64957;SDS011;51486;50.232;19.208;2022-08-20T03:24:22;10.90;;;5.50;;
64957;SDS011;51486;50.232;19.208;2022-08-20T03:26:47;14.70;;;5.63;;
64957;SDS011;51486;50.232;19.208;2022-08-20T03:29:13;8.23;;;5.17;;
64957;SDS011;51486;50.232;19.208;2022-08-20T03:31:38;6.87;;;4.40;;
64957;SDS011;51486;50.232;19.208;2022-08-20T03:34:04;8.57;;;5.30;;
64957;SDS011;51486;50.232;19.208;2022-08-20T03:36:30;5.30;;;4.27;;
64957;SDS011;51486;50.232;19.208;2022-08-20T03:38:56;9.67;;;4.87;;
64957;SDS011;51486;50.232;19.208;2022-08-20T03:41:24;11.43;;;4.83;;
64957;SDS011;51486;50.232;19.208;2022-08-20T03:43:51;7.83;;;4.57;;
64957;SDS011;51486;50.232;19.208;2022-08-20T03:46:17;8.43;;;4.93;;
64957;SDS011;51486;50.232;19.208;2022-08-20T03:48:42;11.60;;;4.87;;
64957;SDS011;51486;50.232;19.208;2022-08-20T03:51:08;10.67;;;4.50;;
64957;SDS011;51486;50.232;19.208;2022-08-20T03:53:34;7.97;;;4.83;;
64957;SDS011;51486;50.232;19.208;2022-08-20T03:56:00;10.87;;;6.10;;
64957;SDS011;51486;50.232;19.208;2022-08-20T03:58:29;9.30;;;5.40;;
64957;SDS011;51486;50.232;19.208;2022-08-20T04:00:56;17.50;;;5.43;;
64957;SDS011;51486;50.232;19.208;2022-08-20T04:03:22;9.83;;;4.93;;
64957;SDS011;51486;50.232;19.208;2022-08-20T04:05:48;8.83;;;4.77;;
64957;SDS011;51486;50.232;19.208;2022-08-20T04:08:25;11.90;;;5.87;;
64957;SDS011;51486;50.232;19.208;2022-08-20T04:10:52;11.00;;;4.60;;
64957;SDS011;51486;50.232;19.208;2022-08-20T04:13:22;13.57;;;5.17;;
64957;SDS011;51486;50.232;19.208;2022-08-20T04:15:48;13.03;;;6.07;;
64957;SDS011;51486;50.232;19.208;2022-08-20T04:18:14;13.67;;;6.27;;
64957;SDS011;51486;50.232;19.208;2022-08-20T04:20:45;19.63;;;6.13;;
64957;SDS011;51486;50.232;19.208;2022-08-20T04:23:11;17.47;;;6.90;;
64957;SDS011;51486;50.232;19.208;2022-08-20T04:25:39;18.67;;;9.90;;
64957;SDS011;51486;50.232;19.208;2022-08-20T04:28:06;21.50;;;9.20;;
64957;SDS011;51486;50.232;19.208;2022-08-20T04:30:34;13.77;;;7.20;;
64957;SDS011;51486;50.232;19.208;2022-08-20T04:33:00;11.30;;;7.07;;
64957;SDS011;51486;50.232;19.208;2022-08-20T04:35:26;16.17;;;7.67;;
64957;SDS011;51486;50.232;19.208;2022-08-20T04:38:07;11.47;;;6.30;;
64957;SDS011;51486;50.232;19.208;2022-08-20T04:40:34;17.43;;;6.30;;
64957;SDS011;51486;50.232;19.208;2022-08-20T04:43:22;17.70;;;6.53;;
64957;SDS011;51486;50.232;19.208;2022-08-20T04:45:48;12.40;;;5.97;;
64957;SDS011;51486;50.232;19.208;2022-08-20T04:48:16;11.83;;;5.90;;
64957;SDS011;51486;50.232;19.208;2022-08-20T04:50:43;14.60;;;6.80;;
64957;SDS011;51486;50.232;19.208;2022-08-20T04:53:11;18.67;;;6.30;;
64957;SDS011;51486;50.232;19.208;2022-08-20T04:55:38;10.60;;;5.70;;
64957;SDS011;51486;50.232;19.208;2022-08-20T04:58:14;9.77;;;5.50;;
64957;SDS011;51486;50.232;19.208;2022-08-20T05:00:52;18.57;;;7.20;;
64957;SDS011;51486;50.232;19.208;2022-08-20T05:03:19;15.10;;;6.90;;
64957;SDS011;51486;50.232;19.208;2022-08-20T05:05:46;13.07;;;6.30;;
64957;SDS011;51486;50.232;19.208;2022-08-20T05:08:12;9.27;;;6.00;;
64957;SDS011;51486;50.232;19.208;2022-08-20T05:10:39;13.27;;;5.43;;
64957;SDS011;51486;50.232;19.208;2022-08-20T05:13:06;13.47;;;5.90;;
64957;SDS011;51486;50.232;19.208;2022-08-20T05:15:32;12.47;;;5.47;;
64957;SDS011;51486;50.232;19.208;2022-08-20T05:18:00;8.83;;;5.20;;
64957;SDS011;51486;50.232;19.208;2022-08-20T05:20:31;14.43;;;7.43;;
64957;SDS011;51486;50.232;19.208;2022-08-20T05:22:58;14.90;;;6.40;;
64957;SDS011;51486;50.232;19.208;2022-08-20T05:25:25;18.47;;;6.60;;
64957;SDS011;51486;50.232;19.208;2022-08-20T05:27:55;11.97;;;6.17;;
64957;SDS011;51486;50.232;19.208;2022-08-20T05:30:25;14.33;;;6.40;;
64957;SDS011;51486;50.232;19.208;2022-08-20T05:32:51;13.47;;;6.03;;
64957;SDS011;51486;50.232;19.208;2022-08-20T05:35:17;14.07;;;5.30;;
64957;SDS011;51486;50.232;19.208;2022-08-20T05:37:42;9.63;;;6.00;;
64957;SDS011;51486;50.232;19.208;2022-08-20T05:40:10;9.83;;;5.20;;
64957;SDS011;51486;50.232;19.208;2022-08-20T05:42:38;10.53;;;5.80;;
64957;SDS011;51486;50.232;19.208;2022-08-20T05:45:05;11.13;;;6.03;;
64957;SDS011;51486;50.232;19.208;2022-08-20T05:47:31;10.07;;;5.23;;
64957;SDS011;51486;50.232;19.208;2022-08-20T05:49:56;12.07;;;5.07;;
64957;SDS011;51486;50.232;19.208;2022-08-20T05:52:22;11.13;;;5.13;;
64957;SDS011;51486;50.232;19.208;2022-08-20T05:54:47;9.37;;;5.13;;
64957;SDS011;51486;50.232;19.208;2022-08-20T05:57:15;15.60;;;6.03;;
64957;SDS011;51486;50.232;19.208;2022-08-20T05:59:43;10.83;;;5.90;;
64957;SDS011;51486;50.232;19.208;2022-08-20T06:02:09;10.43;;;5.60;;
64957;SDS011;51486;50.232;19.208;2022-08-20T06:04:54;17.57;;;5.60;;
64957;SDS011;51486;50.232;19.208;2022-08-20T06:07:20;9.73;;;5.87;;
64957;SDS011;51486;50.232;19.208;2022-08-20T06:09:47;12.73;;;6.17;;
64957;SDS011;51486;50.232;19.208;2022-08-20T06:12:12;11.77;;;5.90;;
64957;SDS011;51486;50.232;19.208;2022-08-20T06:14:38;19.23;;;6.07;;
64957;SDS011;51486;50.232;19.208;2022-08-20T06:17:11;11.47;;;6.30;;
64957;SDS011;51486;50.232;19.208;2022-08-20T06:19:40;9.83;;;6.47;;
64957;SDS011;51486;50.232;19.208;2022-08-20T06:22:06;16.43;;;7.33;;
64957;SDS011;51486;50.232;19.208;2022-08-20T06:24:32;17.10;;;7.20;;
64957;SDS011;51486;50.232;19.208;2022-08-20T06:26:58;19.20;;;6.70;;
64957;SDS011;51486;50.232;19.208;2022-08-20T06:29:25;18.20;;;7.03;;
64957;SDS011;51486;50.232;19.208;2022-08-20T06:31:51;14.57;;;7.10;;
64957;SDS011;51486;50.232;19.208;2022-08-20T06:34:17;11.53;;;6.30;;
64957;SDS011;51486;50.232;19.208;2022-08-20T06:36:43;10.80;;;6.53;;
64957;SDS011;51486;50.232;19.208;2022-08-20T06:39:11;15.43;;;7.23;;
64957;SDS011;51486;50.232;19.208;2022-08-20T06:41:40;12.93;;;6.47;;
64957;SDS011;51486;50.232;19.208;2022-08-20T06:44:06;14.10;;;6.20;;
64957;SDS011;51486;50.232;19.208;2022-08-20T06:46:32;8.87;;;5.80;;
64957;SDS011;51486;50.232;19.208;2022-08-20T06:49:00;13.20;;;6.87;;
64957;SDS011;51486;50.232;19.208;2022-08-20T06:51:27;11.40;;;6.10;;
64957;SDS011;51486;50.232;19.208;2022-08-20T06:53:53;12.37;;;5.63;;
64957;SDS011;51486;50.232;19.208;2022-08-20T06:56:18;12.37;;;6.20;;
64957;SDS011;51486;50.232;19.208;2022-08-20T06:58:44;9.67;;;5.70;;
64957;SDS011;51486;50.232;19.208;2022-08-20T07:01:10;10.10;;;5.07;;
64957;SDS011;51486;50.232;19.208;2022-08-20T07:03:40;9.73;;;5.53;;
64957;SDS011;51486;50.232;19.208;2022-08-20T07:06:06;14.00;;;5.72;;
64957;SDS011;51486;50.232;19.208;2022-08-20T07:08:32;15.10;;;5.85;;
64957;SDS011;51486;50.232;19.208;2022-08-20T07:10:59;9.00;;;5.50;;
64957;SDS011;51486;50.232;19.208;2022-08-20T07:13:25;15.40;;;5.70;;
64957;SDS011;51486;50.232;19.208;2022-08-20T07:15:51;17.48;;;6.22;;
64957;SDS011;51486;50.232;19.208;2022-08-20T07:18:16;14.07;;;5.25;;
64957;SDS011;51486;50.232;19.208;2022-08-20T07:20:42;9.55;;;5.13;;
64957;SDS011;51486;50.232;19.208;2022-08-20T07:23:08;12.90;;;6.10;;
64957;SDS011;51486;50.232;19.208;2022-08-20T07:25:35;8.07;;;4.72;;
64957;SDS011;51486;50.232;19.208;2022-08-20T07:28:06;13.07;;;5.53;;
64957;SDS011;51486;50.232;19.208;2022-08-20T07:30:35;7.82;;;5.43;;
64957;SDS011;51486;50.232;19.208;2022-08-20T07:33:19;16.42;;;5.68;;
64957;SDS011;51486;50.232;19.208;2022-08-20T07:35:45;11.23;;;5.45;;
64957;SDS011;51486;50.232;19.208;2022-08-20T07:38:16;12.48;;;5.50;;
64957;SDS011;51486;50.232;19.208;2022-08-20T07:40:48;6.53;;;4.50;;
64957;SDS011;51486;50.232;19.208;2022-08-20T07:43:13;8.27;;;4.60;;
64957;SDS011;51486;50.232;19.208;2022-08-20T07:45:40;6.85;;;3.75;;
64957;SDS011;51486;50.232;19.208;2022-08-20T07:48:07;11.10;;;5.45;;
64957;SDS011;51486;50.232;19.208;2022-08-20T07:50:36;10.68;;;5.85;;
64957;SDS011;51486;50.232;19.208;2022-08-20T07:53:02;12.55;;;5.78;;
64957;SDS011;51486;50.232;19.208;2022-08-20T07:55:27;13.50;;;5.95;;
64957;SDS011;51486;50.232;19.208;2022-08-20T07:57:54;8.57;;;5.20;;
64957;SDS011;51486;50.232;19.208;2022-08-20T08:00:22;9.60;;;5.22;;
64957;SDS011;51486;50.232;19.208;2022-08-20T08:02:48;8.85;;;5.53;;
64957;SDS011;51486;50.232;19.208;2022-08-20T08:05:13;10.02;;;5.68;;
64957;SDS011;51486;50.232;19.208;2022-08-20T08:07:40;11.90;;;5.78;;
64957;SDS011;51486;50.232;19.208;2022-08-20T08:10:06;11.63;;;4.88;;
64957;SDS011;51486;50.232;19.208;2022-08-20T08:12:35;8.65;;;5.47;;
64957;SDS011;51486;50.232;19.208;2022-08-20T08:15:09;9.43;;;6.10;;
64957;SDS011;51486;50.232;19.208;2022-08-20T08:17:36;9.15;;;5.25;;
64957;SDS011;51486;50.232;19.208;2022-08-20T08:20:03;18.10;;;5.78;;
64957;SDS011;51486;50.232;19.208;2022-08-20T08:22:30;9.15;;;5.68;;
64957;SDS011;51486;50.232;19.208;2022-08-20T08:24:56;14.68;;;5.43;;
64957;SDS011;51486;50.232;19.208;2022-08-20T08:27:26;8.20;;;4.72;;
64957;SDS011;51486;50.232;19.208;2022-08-20T08:29:58;14.25;;;6.05;;
64957;SDS011;51486;50.232;19.208;2022-08-20T08:32:25;9.00;;;5.32;;
64957;SDS011;51486;50.232;19.208;2022-08-20T08:34:51;8.02;;;5.07;;
64957;SDS011;51486;50.232;19.208;2022-08-20T08:37:16;7.95;;;4.88;;
64957;SDS011;51486;50.232;19.208;2022-08-20T08:39:41;15.00;;;5.80;;
64957;SDS011;51486;50.232;19.208;2022-08-20T08:42:33;18.92;;;6.10;;
64957;SDS011;51486;50.232;19.208;2022-08-20T08:44:59;9.50;;;5.43;;
64957;SDS011;51486;50.232;19.208;2022-08-20T08:47:27;9.48;;;5.43;;
64957;SDS011;51486;50.232;19.208;2022-08-20T08:49:55;9.13;;;5.18;;
64957;SDS011;51486;50.232;19.208;2022-08-20T08:52:31;12.07;;;4.65;;
64957;SDS011;51486;50.232;19.208;2022-08-20T08:54:59;10.00;;;4.72;;
64957;SDS011;51486;50.232;19.208;2022-08-20T08:57:27;9.52;;;3.83;;
64957;SDS011;51486;50.232;19.208;2022-08-20T08:59:57;8.88;;;4.05;;
64957;SDS011;51486;50.232;19.208;2022-08-20T09:02:26;9.95;;;3.80;;
64957;SDS011;51486;50.232;19.208;2022-08-20T09:04:53;7.63;;;4.50;;
64957;SDS011;51486;50.232;19.208;2022-08-20T09:07:20;10.43;;;3.17;;
64957;SDS011;51486;50.232;19.208;2022-08-20T09:09:48;9.80;;;3.10;;
64957;SDS011;51486;50.232;19.208;2022-08-20T09:12:16;11.65;;;4.25;;
64957;SDS011;51486;50.232;19.208;2022-08-20T09:14:44;6.55;;;2.92;;
64957;SDS011;51486;50.232;19.208;2022-08-20T09:17:12;8.35;;;3.10;;
64957;SDS011;51486;50.232;19.208;2022-08-20T09:19:37;7.10;;;3.20;;
64957;SDS011;51486;50.232;19.208;2022-08-20T09:22:07;10.32;;;2.90;;
64957;SDS011;51486;50.232;19.208;2022-08-20T09:24:36;5.57;;;2.88;;
64957;SDS011;51486;50.232;19.208;2022-08-20T09:27:03;11.60;;;3.73;;
64957;SDS011;51486;50.232;19.208;2022-08-20T09:29:29;9.77;;;3.90;;
64957;SDS011;51486;50.232;19.208;2022-08-20T09:32:06;9.93;;;3.57;;
64957;SDS011;51486;50.232;19.208;2022-08-20T09:34:36;9.95;;;4.28;;
64957;SDS011;51486;50.232;19.208;2022-08-20T09:37:08;9.07;;;3.63;;
64957;SDS011;51486;50.232;19.208;2022-08-20T09:39:34;11.95;;;4.57;;
64957;SDS011;51486;50.232;19.208;2022-08-20T09:42:07;12.20;;;4.68;;
64957;SDS011;51486;50.232;19.208;2022-08-20T09:44:41;15.55;;;5.88;;
64957;SDS011;51486;50.232;19.208;2022-08-20T09:47:08;11.75;;;3.75;;
64957;SDS011;51486;50.232;19.208;2022-08-20T09:49:33;12.43;;;4.18;;
64957;SDS011;51486;50.232;19.208;2022-08-20T09:52:02;8.02;;;3.70;;
64957;SDS011;51486;50.232;19.208;2022-08-20T09:54:28;10.10;;;4.55;;
64957;SDS011;51486;50.232;19.208;2022-08-20T09:56:56;10.98;;;4.60;;
64957;SDS011;51486;50.232;19.208;2022-08-20T09:59:22;18.25;;;4.90;;
64957;SDS011;51486;50.232;19.208;2022-08-20T10:01:48;12.43;;;5.13;;
64957;SDS011;51486;50.232;19.208;2022-08-20T10:04:14;12.60;;;4.68;;
64957;SDS011;51486;50.232;19.208;2022-08-20T10:06:39;12.70;;;4.55;;
64957;SDS011;51486;50.232;19.208;2022-08-20T10:09:05;15.82;;;5.22;;
64957;SDS011;51486;50.232;19.208;2022-08-20T10:11:31;12.02;;;4.57;;
64957;SDS011;51486;50.232;19.208;2022-08-20T10:13:56;9.93;;;3.60;;
64957;SDS011;51486;50.232;19.208;2022-08-20T10:16:22;12.35;;;4.40;;
64957;SDS011;51486;50.232;19.208;2022-08-20T10:18:48;11.23;;;4.25;;
64957;SDS011;51486;50.232;19.208;2022-08-20T10:21:13;9.98;;;3.53;;
64957;SDS011;51486;50.232;19.208;2022-08-20T10:23:40;17.83;;;4.70;;
64957;SDS011;51486;50.232;19.208;2022-08-20T10:26:06;17.98;;;4.20;;
64957;SDS011;51486;50.232;19.208;2022-08-20T10:28:36;17.30;;;3.92;;
64957;SDS011;51486;50.232;19.208;2022-08-20T10:31:04;18.60;;;5.13;;
64957;SDS011;51486;50.232;19.208;2022-08-20T10:33:30;19.48;;;4.75;;
64957;SDS011;51486;50.232;19.208;2022-08-20T10:35:55;11.07;;;4.75;;
64957;SDS011;51486;50.232;19.208;2022-08-20T10:38:21;7.07;;;3.78;;
64957;SDS011;51486;50.232;19.208;2022-08-20T10:40:46;9.40;;;4.13;;
64957;SDS011;51486;50.232;19.208;2022-08-20T10:43:12;7.57;;;4.43;;
64957;SDS011;51486;50.232;19.208;2022-08-20T10:45:37;5.43;;;3.28;;
64957;SDS011;51486;50.232;19.208;2022-08-20T10:48:03;5.97;;;2.90;;
64957;SDS011;51486;50.232;19.208;2022-08-20T10:50:28;8.45;;;3.25;;
64957;SDS011;51486;50.232;19.208;2022-08-20T10:52:54;24.17;;;4.22;;
64957;SDS011;51486;50.232;19.208;2022-08-20T10:55:19;4.47;;;2.90;;
64957;SDS011;51486;50.232;19.208;2022-08-20T10:57:45;13.38;;;3.47;;
64957;SDS011;51486;50.232;19.208;2022-08-20T11:00:14;10.63;;;3.00;;
64957;SDS011;51486;50.232;19.208;2022-08-20T11:02:41;13.18;;;3.45;;
64957;SDS011;51486;50.232;19.208;2022-08-20T11:05:07;6.43;;;3.45;;
64957;SDS011;51486;50.232;19.208;2022-08-20T11:07:34;6.45;;;3.40;;
64957;SDS011;51486;50.232;19.208;2022-08-20T11:10:02;5.93;;;3.40;;
64957;SDS011;51486;50.232;19.208;2022-08-20T11:12:30;6.25;;;3.47;;
64957;SDS011;51486;50.232;19.208;2022-08-20T11:14:55;7.72;;;3.13;;
64957;SDS011;51486;50.232;19.208;2022-08-20T11:19:46;7.45;;;3.55;;
64957;SDS011;51486;50.232;19.208;2022-08-20T11:22:12;10.43;;;4.68;;
64957;SDS011;51486;50.232;19.208;2022-08-20T11:24:37;15.80;;;3.67;;
64957;SDS011;51486;50.232;19.208;2022-08-20T11:27:03;13.05;;;4.22;;
64957;SDS011;51486;50.232;19.208;2022-08-20T11:29:31;14.15;;;4.57;;
64957;SDS011;51486;50.232;19.208;2022-08-20T11:31:57;6.88;;;4.20;;
64957;SDS011;51486;50.232;19.208;2022-08-20T11:34:22;22.40;;;4.30;;
64957;SDS011;51486;50.232;19.208;2022-08-20T11:36:48;8.40;;;4.20;;
64957;SDS011;51486;50.232;19.208;2022-08-20T11:39:13;9.50;;;4.43;;
64957;SDS011;51486;50.232;19.208;2022-08-20T11:41:39;6.90;;;3.88;;
64957;SDS011;51486;50.232;19.208;2022-08-20T11:44:05;12.13;;;4.63;;
64957;SDS011;51486;50.232;19.208;2022-08-20T11:46:31;8.38;;;3.85;;
64957;SDS011;51486;50.232;19.208;2022-08-20T11:48:57;4.53;;;3.28;;
64957;SDS011;51486;50.232;19.208;2022-08-20T11:51:23;7.97;;;3.97;;
64957;SDS011;51486;50.232;19.208;2022-08-20T11:53:48;11.73;;;3.90;;
64957;SDS011;51486;50.232;19.208;2022-08-20T11:56:14;7.30;;;3.58;;
64957;SDS011;51486;50.232;19.208;2022-08-20T11:58:40;7.68;;;3.92;;
64957;SDS011;51486;50.232;19.208;2022-08-20T12:01:06;9.07;;;4.28;;
64957;SDS011;51486;50.232;19.208;2022-08-20T12:03:32;9.20;;;4.13;;
64957;SDS011;51486;50.232;19.208;2022-08-20T12:05:57;12.32;;;4.03;;
64957;SDS011;51486;50.232;19.208;2022-08-20T12:08:23;10.80;;;3.92;;
64957;SDS011;51486;50.232;19.208;2022-08-20T12:10:48;10.52;;;4.25;;
64957;SDS011;51486;50.232;19.208;2022-08-20T12:13:14;9.50;;;3.90;;
64957;SDS011;51486;50.232;19.208;2022-08-20T12:15:39;9.32;;;4.45;;
64957;SDS011;51486;50.232;19.208;2022-08-20T12:18:05;21.88;;;4.43;;
64957;SDS011;51486;50.232;19.208;2022-08-20T12:20:32;12.02;;;4.20;;
64957;SDS011;51486;50.232;19.208;2022-08-20T12:22:57;9.63;;;4.72;;
64957;SDS011;51486;50.232;19.208;2022-08-20T12:25:23;8.75;;;4.38;;
64957;SDS011;51486;50.232;19.208;2022-08-20T12:27:49;12.73;;;4.20;;
64957;SDS011;51486;50.232;19.208;2022-08-20T12:30:16;5.70;;;3.65;;
64957;SDS011;51486;50.232;19.208;2022-08-20T12:32:44;7.70;;;4.22;;
64957;SDS011;51486;50.232;19.208;2022-08-20T12:35:11;11.02;;;5.03;;
64957;SDS011;51486;50.232;19.208;2022-08-20T12:37:38;11.93;;;4.43;;
64957;SDS011;51486;50.232;19.208;2022-08-20T12:40:06;11.35;;;3.65;;
64957;SDS011;51486;50.232;19.208;2022-08-20T12:42:34;10.52;;;4.93;;
64957;SDS011;51486;50.232;19.208;2022-08-20T12:45:00;12.60;;;4.93;;
64957;SDS011;51486;50.232;19.208;2022-08-20T12:47:30;21.27;;;5.03;;
64957;SDS011;51486;50.232;19.208;2022-08-20T12:49:58;9.18;;;4.18;;
64957;SDS011;51486;50.232;19.208;2022-08-20T12:52:26;8.63;;;3.50;;
64957;SDS011;51486;50.232;19.208;2022-08-20T12:54:54;8.48;;;4.38;;
64957;SDS011;51486;50.232;19.208;2022-08-20T12:59:50;9.45;;;4.38;;
64957;SDS011;51486;50.232;19.208;2022-08-20T13:02:15;8.45;;;4.50;;
64957;SDS011;51486;50.232;19.208;2022-08-20T13:04:44;8.55;;;4.57;;
64957;SDS011;51486;50.232;19.208;2022-08-20T13:07:11;13.27;;;5.05;;
64957;SDS011;51486;50.232;19.208;2022-08-20T13:09:37;8.02;;;4.57;;
64957;SDS011;51486;50.232;19.208;2022-08-20T13:12:02;7.03;;;4.55;;
64957;SDS011;51486;50.232;19.208;2022-08-20T13:14:28;11.98;;;4.25;;
64957;SDS011;51486;50.232;19.208;2022-08-20T13:16:54;15.15;;;3.83;;
64957;SDS011;51486;50.232;19.208;2022-08-20T13:19:24;18.27;;;5.35;;
64957;SDS011;51486;50.232;19.208;2022-08-20T13:21:51;18.13;;;6.10;;
64957;SDS011;51486;50.232;19.208;2022-08-20T13:24:17;10.43;;;5.22;;
64957;SDS011;51486;50.232;19.208;2022-08-20T13:26:43;12.52;;;6.05;;
64957;SDS011;51486;50.232;19.208;2022-08-20T13:29:08;12.93;;;5.60;;
64957;SDS011;51486;50.232;19.208;2022-08-20T13:31:34;7.77;;;4.53;;
64957;SDS011;51486;50.232;19.208;2022-08-20T13:33:59;19.87;;;5.87;;
64957;SDS011;51486;50.232;19.208;2022-08-20T13:36:24;12.53;;;4.93;;
64957;SDS011;51486;50.232;19.208;2022-08-20T13:38:50;12.43;;;5.63;;
64957;SDS011;51486;50.232;19.208;2022-08-20T13:41:15;14.90;;;5.20;;
64957;SDS011;51486;50.232;19.208;2022-08-20T13:43:41;7.63;;;5.43;;
64957;SDS011;51486;50.232;19.208;2022-08-20T13:46:06;17.27;;;5.10;;
64957;SDS011;51486;50.232;19.208;2022-08-20T13:48:32;14.30;;;6.60;;
64957;SDS011;51486;50.232;19.208;2022-08-20T13:50:58;12.87;;;5.93;;
64957;SDS011;51486;50.232;19.208;2022-08-20T13:53:23;12.30;;;5.53;;
64957;SDS011;51486;50.232;19.208;2022-08-20T13:55:49;13.03;;;6.00;;
64957;SDS011;51486;50.232;19.208;2022-08-20T13:58:15;16.40;;;6.30;;
64957;SDS011;51486;50.232;19.208;2022-08-20T14:00:42;13.77;;;5.87;;
64957;SDS011;51486;50.232;19.208;2022-08-20T14:03:09;15.23;;;5.33;;
64957;SDS011;51486;50.232;19.208;2022-08-20T14:05:35;14.30;;;6.00;;
64957;SDS011;51486;50.232;19.208;2022-08-20T14:08:05;12.37;;;5.23;;
64957;SDS011;51486;50.232;19.208;2022-08-20T14:10:39;16.13;;;4.10;;
64957;SDS011;51486;50.232;19.208;2022-08-20T14:13:05;12.33;;;6.03;;
64957;SDS011;51486;50.232;19.208;2022-08-20T14:15:31;11.07;;;5.27;;
64957;SDS011;51486;50.232;19.208;2022-08-20T14:17:57;16.93;;;6.20;;
64957;SDS011;51486;50.232;19.208;2022-08-20T14:20:24;9.50;;;5.13;;
64957;SDS011;51486;50.232;19.208;2022-08-20T14:22:52;13.03;;;5.17;;
64957;SDS011;51486;50.232;19.208;2022-08-20T14:25:18;12.57;;;5.30;;
64957;SDS011;51486;50.232;19.208;2022-08-20T14:27:45;19.10;;;6.33;;
64957;SDS011;51486;50.232;19.208;2022-08-20T14:30:15;8.67;;;4.87;;
64957;SDS011;51486;50.232;19.208;2022-08-20T14:32:41;8.57;;;5.27;;
64957;SDS011;51486;50.232;19.208;2022-08-20T14:35:07;9.00;;;4.93;;
64957;SDS011;51486;50.232;19.208;2022-08-20T14:37:35;12.90;;;5.63;;
64957;SDS011;51486;50.232;19.208;2022-08-20T14:40:04;8.57;;;5.30;;
64957;SDS011;51486;50.232;19.208;2022-08-20T14:42:31;10.57;;;5.80;;
64957;SDS011;51486;50.232;19.208;2022-08-20T14:44:57;9.30;;;4.63;;